sensor_id;sensor_type;location;lat;lon;timestamp;P1;durP1;ratioP1;P2;durP2;ratioP2
21494;SDS011;10909;53.590;10.054;2023-04-03T00:01:35;1.83;;;1.33;;
21494;SDS011;10909;53.590;10.054;2023-04-03T00:04:03;1.97;;;1.43;;
21494;SDS011;10909;53.590;10.054;2023-04-03T00:06:32;2.57;;;1.40;;
21494;SDS011;10909;53.590;10.054;2023-04-03T00:08:57;2.17;;;1.20;;
21494;SDS011;10909;53.590;10.054;2023-04-03T00:11:23;1.80;;;1.30;;
21494;SDS011;10909;53.590;10.054;2023-04-03T00:13:50;2.60;;;1.47;;
21494;SDS011;10909;53.590;10.054;2023-04-03T00:16:16;2.77;;;1.40;;
21494;SDS011;10909;53.590;10.054;2023-04-03T00:18:41;2.03;;;1.40;;
21494;SDS011;10909;53.590;10.054;2023-04-03T00:21:08;3.47;;;1.50;;
21494;SDS011;10909;53.590;10.054;2023-04-03T00:23:36;4.00;;;1.43;;
21494;SDS011;10909;53.590;10.054;2023-04-03T00:26:02;4.40;;;2.00;;
21494;SDS011;10909;53.590;10.054;2023-04-03T00:28:28;1.67;;;1.27;;
21494;SDS011;10909;53.590;10.054;2023-04-03T00:30:54;1.97;;;1.23;;
21494;SDS011;10909;53.590;10.054;2023-04-03T00:33:19;2.87;;;1.10;;
21494;SDS011;10909;53.590;10.054;2023-04-03T00:35:46;2.63;;;1.37;;
21494;SDS011;10909;53.590;10.054;2023-04-03T00:38:13;4.67;;;1.40;;
21494;SDS011;10909;53.590;10.054;2023-04-03T00:40:41;4.03;;;1.63;;
21494;SDS011;10909;53.590;10.054;2023-04-03T00:43:13;1.90;;;1.37;;
21494;SDS011;10909;53.590;10.054;2023-04-03T00:45:42;2.70;;;1.37;;
21494;SDS011;10909;53.590;10.054;2023-04-03T00:48:13;3.30;;;1.43;;
21494;SDS011;10909;53.590;10.054;2023-04-03T00:50:43;1.53;;;1.17;;
21494;SDS011;10909;53.590;10.054;2023-04-03T00:53:11;2.47;;;1.60;;
21494;SDS011;10909;53.590;10.054;2023-04-03T00:55:41;2.40;;;1.40;;
21494;SDS011;10909;53.590;10.054;2023-04-03T00:58:09;1.97;;;1.37;;
21494;SDS011;10909;53.590;10.054;2023-04-03T01:00:37;2.77;;;1.47;;
21494;SDS011;10909;53.590;10.054;2023-04-03T01:03:07;3.80;;;1.60;;
21494;SDS011;10909;53.590;10.054;2023-04-03T01:05:32;4.17;;;1.63;;
21494;SDS011;10909;53.590;10.054;2023-04-03T01:07:58;3.10;;;1.50;;
21494;SDS011;10909;53.590;10.054;2023-04-03T01:10:25;2.43;;;1.03;;
21494;SDS011;10909;53.590;10.054;2023-04-03T01:12:51;2.23;;;1.40;;
21494;SDS011;10909;53.590;10.054;2023-04-03T01:15:19;2.33;;;1.60;;
21494;SDS011;10909;53.590;10.054;2023-04-03T01:17:50;3.00;;;1.50;;
21494;SDS011;10909;53.590;10.054;2023-04-03T01:22:58;2.73;;;1.40;;
21494;SDS011;10909;53.590;10.054;2023-04-03T01:25:30;3.47;;;1.47;;
21494;SDS011;10909;53.590;10.054;2023-04-03T01:27:57;3.00;;;1.40;;
21494;SDS011;10909;53.590;10.054;2023-04-03T01:30:24;2.33;;;1.57;;
21494;SDS011;10909;53.590;10.054;2023-04-03T01:32:55;2.47;;;1.30;;
21494;SDS011;10909;53.590;10.054;2023-04-03T01:35:22;3.20;;;1.17;;
21494;SDS011;10909;53.590;10.054;2023-04-03T01:37:47;2.40;;;1.50;;
21494;SDS011;10909;53.590;10.054;2023-04-03T01:40:13;5.23;;;1.70;;
21494;SDS011;10909;53.590;10.054;2023-04-03T01:42:39;4.33;;;1.90;;
21494;SDS011;10909;53.590;10.054;2023-04-03T01:45:05;4.13;;;1.73;;
21494;SDS011;10909;53.590;10.054;2023-04-03T01:47:30;2.70;;;1.60;;
21494;SDS011;10909;53.590;10.054;2023-04-03T01:49:56;2.30;;;1.30;;
21494;SDS011;10909;53.590;10.054;2023-04-03T01:52:22;3.23;;;1.50;;
21494;SDS011;10909;53.590;10.054;2023-04-03T01:54:48;2.70;;;1.50;;
21494;SDS011;10909;53.590;10.054;2023-04-03T01:57:14;3.63;;;1.70;;
21494;SDS011;10909;53.590;10.054;2023-04-03T01:59:40;4.03;;;1.50;;
21494;SDS011;10909;53.590;10.054;2023-04-03T02:02:06;2.73;;;1.47;;
21494;SDS011;10909;53.590;10.054;2023-04-03T02:04:37;2.33;;;1.33;;
21494;SDS011;10909;53.590;10.054;2023-04-03T02:07:03;4.20;;;1.80;;
21494;SDS011;10909;53.590;10.054;2023-04-03T02:09:28;3.67;;;1.60;;
21494;SDS011;10909;53.590;10.054;2023-04-03T02:11:54;2.97;;;1.60;;
21494;SDS011;10909;53.590;10.054;2023-04-03T02:14:20;2.83;;;1.50;;
21494;SDS011;10909;53.590;10.054;2023-04-03T02:16:46;2.90;;;1.67;;
21494;SDS011;10909;53.590;10.054;2023-04-03T02:19:12;3.03;;;1.30;;
21494;SDS011;10909;53.590;10.054;2023-04-03T02:21:38;3.30;;;1.60;;
21494;SDS011;10909;53.590;10.054;2023-04-03T02:24:04;4.43;;;1.90;;
21494;SDS011;10909;53.590;10.054;2023-04-03T02:26:30;3.03;;;1.40;;
21494;SDS011;10909;53.590;10.054;2023-04-03T02:28:56;3.03;;;1.47;;
21494;SDS011;10909;53.590;10.054;2023-04-03T02:31:21;3.90;;;1.60;;
21494;SDS011;10909;53.590;10.054;2023-04-03T02:33:47;3.13;;;1.53;;
21494;SDS011;10909;53.590;10.054;2023-04-03T02:36:12;2.60;;;1.60;;
21494;SDS011;10909;53.590;10.054;2023-04-03T02:38:38;3.07;;;1.63;;
21494;SDS011;10909;53.590;10.054;2023-04-03T02:41:05;2.60;;;1.63;;
21494;SDS011;10909;53.590;10.054;2023-04-03T02:43:32;4.30;;;1.33;;
21494;SDS011;10909;53.590;10.054;2023-04-03T02:45:58;2.40;;;1.67;;
21494;SDS011;10909;53.590;10.054;2023-04-03T02:48:24;3.50;;;1.60;;
21494;SDS011;10909;53.590;10.054;2023-04-03T02:50:50;3.07;;;1.33;;
21494;SDS011;10909;53.590;10.054;2023-04-03T02:53:16;2.83;;;1.47;;
21494;SDS011;10909;53.590;10.054;2023-04-03T02:55:43;2.50;;;1.43;;
21494;SDS011;10909;53.590;10.054;2023-04-03T02:58:10;1.60;;;1.30;;
21494;SDS011;10909;53.590;10.054;2023-04-03T03:00:36;2.00;;;1.47;;
21494;SDS011;10909;53.590;10.054;2023-04-03T03:03:02;1.80;;;1.23;;
21494;SDS011;10909;53.590;10.054;2023-04-03T03:05:28;2.30;;;1.23;;
21494;SDS011;10909;53.590;10.054;2023-04-03T03:07:54;1.40;;;1.30;;
21494;SDS011;10909;53.590;10.054;2023-04-03T03:10:20;2.33;;;1.30;;
21494;SDS011;10909;53.590;10.054;2023-04-03T03:12:46;2.70;;;1.57;;
21494;SDS011;10909;53.590;10.054;2023-04-03T03:15:12;2.00;;;1.13;;
21494;SDS011;10909;53.590;10.054;2023-04-03T03:17:38;1.83;;;1.33;;
21494;SDS011;10909;53.590;10.054;2023-04-03T03:20:04;2.20;;;1.50;;
21494;SDS011;10909;53.590;10.054;2023-04-03T03:22:30;2.30;;;1.63;;
21494;SDS011;10909;53.590;10.054;2023-04-03T03:24:57;3.73;;;1.50;;
21494;SDS011;10909;53.590;10.054;2023-04-03T03:27:23;2.70;;;1.50;;
21494;SDS011;10909;53.590;10.054;2023-04-03T03:29:49;3.27;;;1.50;;
21494;SDS011;10909;53.590;10.054;2023-04-03T03:32:15;3.10;;;1.50;;
21494;SDS011;10909;53.590;10.054;2023-04-03T03:34:40;3.40;;;1.60;;
21494;SDS011;10909;53.590;10.054;2023-04-03T03:37:07;2.07;;;1.40;;
21494;SDS011;10909;53.590;10.054;2023-04-03T03:39:32;2.63;;;1.43;;
21494;SDS011;10909;53.590;10.054;2023-04-03T03:41:58;3.73;;;1.30;;
21494;SDS011;10909;53.590;10.054;2023-04-03T03:44:24;2.40;;;1.33;;
21494;SDS011;10909;53.590;10.054;2023-04-03T03:46:49;2.43;;;1.47;;
21494;SDS011;10909;53.590;10.054;2023-04-03T03:49:15;5.07;;;1.33;;
21494;SDS011;10909;53.590;10.054;2023-04-03T03:51:41;3.03;;;1.20;;
21494;SDS011;10909;53.590;10.054;2023-04-03T03:54:06;1.83;;;1.30;;
21494;SDS011;10909;53.590;10.054;2023-04-03T03:56:34;2.47;;;1.23;;
21494;SDS011;10909;53.590;10.054;2023-04-03T03:58:59;1.57;;;1.30;;
21494;SDS011;10909;53.590;10.054;2023-04-03T04:01:26;3.00;;;1.50;;
21494;SDS011;10909;53.590;10.054;2023-04-03T04:03:52;2.87;;;1.60;;
21494;SDS011;10909;53.590;10.054;2023-04-03T04:06:19;2.13;;;1.60;;
21494;SDS011;10909;53.590;10.054;2023-04-03T04:08:46;1.73;;;1.10;;
21494;SDS011;10909;53.590;10.054;2023-04-03T04:11:12;2.67;;;1.50;;
21494;SDS011;10909;53.590;10.054;2023-04-03T04:13:37;4.20;;;1.37;;
21494;SDS011;10909;53.590;10.054;2023-04-03T04:16:03;2.67;;;1.53;;
21494;SDS011;10909;53.590;10.054;2023-04-03T04:18:29;3.20;;;1.40;;
21494;SDS011;10909;53.590;10.054;2023-04-03T04:20:55;2.63;;;1.40;;
21494;SDS011;10909;53.590;10.054;2023-04-03T04:23:20;1.63;;;1.10;;
21494;SDS011;10909;53.590;10.054;2023-04-03T04:25:46;3.20;;;1.30;;
21494;SDS011;10909;53.590;10.054;2023-04-03T04:28:13;3.57;;;1.47;;
21494;SDS011;10909;53.590;10.054;2023-04-03T04:30:39;1.70;;;1.13;;
21494;SDS011;10909;53.590;10.054;2023-04-03T04:33:05;4.40;;;1.50;;
21494;SDS011;10909;53.590;10.054;2023-04-03T04:35:31;3.93;;;1.60;;
21494;SDS011;10909;53.590;10.054;2023-04-03T04:37:57;1.90;;;1.20;;
21494;SDS011;10909;53.590;10.054;2023-04-03T04:40:23;2.03;;;1.40;;
21494;SDS011;10909;53.590;10.054;2023-04-03T04:42:49;3.10;;;1.60;;
21494;SDS011;10909;53.590;10.054;2023-04-03T04:45:15;2.00;;;1.40;;
21494;SDS011;10909;53.590;10.054;2023-04-03T04:47:41;2.23;;;1.30;;
21494;SDS011;10909;53.590;10.054;2023-04-03T04:50:07;2.87;;;1.47;;
21494;SDS011;10909;53.590;10.054;2023-04-03T04:52:33;3.27;;;1.40;;
21494;SDS011;10909;53.590;10.054;2023-04-03T04:54:59;2.73;;;1.40;;
21494;SDS011;10909;53.590;10.054;2023-04-03T04:57:25;2.97;;;1.60;;
21494;SDS011;10909;53.590;10.054;2023-04-03T04:59:51;1.70;;;1.17;;
21494;SDS011;10909;53.590;10.054;2023-04-03T05:02:16;2.00;;;1.50;;
21494;SDS011;10909;53.590;10.054;2023-04-03T05:04:42;2.77;;;1.30;;
21494;SDS011;10909;53.590;10.054;2023-04-03T05:07:08;1.87;;;1.30;;
21494;SDS011;10909;53.590;10.054;2023-04-03T05:09:34;2.33;;;1.40;;
21494;SDS011;10909;53.590;10.054;2023-04-03T05:12:02;3.73;;;1.60;;
21494;SDS011;10909;53.590;10.054;2023-04-03T05:14:28;3.23;;;1.47;;
21494;SDS011;10909;53.590;10.054;2023-04-03T05:16:54;5.13;;;2.07;;
21494;SDS011;10909;53.590;10.054;2023-04-03T05:19:20;4.33;;;1.63;;
21494;SDS011;10909;53.590;10.054;2023-04-03T05:21:46;3.23;;;1.50;;
21494;SDS011;10909;53.590;10.054;2023-04-03T05:24:12;2.53;;;1.50;;
21494;SDS011;10909;53.590;10.054;2023-04-03T05:26:39;5.37;;;2.00;;
21494;SDS011;10909;53.590;10.054;2023-04-03T05:29:05;4.23;;;1.77;;
21494;SDS011;10909;53.590;10.054;2023-04-03T05:31:31;4.20;;;1.40;;
21494;SDS011;10909;53.590;10.054;2023-04-03T05:33:57;2.50;;;1.73;;
21494;SDS011;10909;53.590;10.054;2023-04-03T05:36:23;3.50;;;1.70;;
21494;SDS011;10909;53.590;10.054;2023-04-03T05:38:48;5.07;;;1.93;;
21494;SDS011;10909;53.590;10.054;2023-04-03T05:41:14;3.80;;;1.50;;
21494;SDS011;10909;53.590;10.054;2023-04-03T05:43:41;4.70;;;1.97;;
21494;SDS011;10909;53.590;10.054;2023-04-03T05:46:16;2.33;;;1.50;;
21494;SDS011;10909;53.590;10.054;2023-04-03T05:48:44;4.83;;;1.80;;
21494;SDS011;10909;53.590;10.054;2023-04-03T05:51:24;3.30;;;1.70;;
21494;SDS011;10909;53.590;10.054;2023-04-03T05:53:55;2.40;;;1.67;;
21494;SDS011;10909;53.590;10.054;2023-04-03T05:56:26;3.10;;;1.80;;
21494;SDS011;10909;53.590;10.054;2023-04-03T05:58:52;2.13;;;1.50;;
21494;SDS011;10909;53.590;10.054;2023-04-03T06:01:17;3.53;;;1.67;;
21494;SDS011;10909;53.590;10.054;2023-04-03T06:03:43;3.83;;;1.70;;
21494;SDS011;10909;53.590;10.054;2023-04-03T06:06:12;3.70;;;1.80;;
21494;SDS011;10909;53.590;10.054;2023-04-03T06:08:39;4.47;;;1.97;;
21494;SDS011;10909;53.590;10.054;2023-04-03T06:11:05;6.00;;;1.90;;
21494;SDS011;10909;53.590;10.054;2023-04-03T06:13:30;2.30;;;1.87;;
21494;SDS011;10909;53.590;10.054;2023-04-03T06:15:57;4.50;;;2.00;;
21494;SDS011;10909;53.590;10.054;2023-04-03T06:18:23;2.80;;;1.70;;
21494;SDS011;10909;53.590;10.054;2023-04-03T06:20:49;2.83;;;1.87;;
21494;SDS011;10909;53.590;10.054;2023-04-03T06:23:14;2.70;;;1.40;;
21494;SDS011;10909;53.590;10.054;2023-04-03T06:25:40;3.17;;;1.60;;
21494;SDS011;10909;53.590;10.054;2023-04-03T06:28:07;2.87;;;1.80;;
21494;SDS011;10909;53.590;10.054;2023-04-03T06:30:35;2.00;;;1.40;;
21494;SDS011;10909;53.590;10.054;2023-04-03T06:33:01;4.93;;;1.40;;
21494;SDS011;10909;53.590;10.054;2023-04-03T06:35:28;3.87;;;1.50;;
21494;SDS011;10909;53.590;10.054;2023-04-03T06:37:55;3.43;;;1.60;;
21494;SDS011;10909;53.590;10.054;2023-04-03T06:40:22;1.97;;;1.37;;
21494;SDS011;10909;53.590;10.054;2023-04-03T06:42:50;3.47;;;1.57;;
21494;SDS011;10909;53.590;10.054;2023-04-03T06:45:16;2.23;;;1.70;;
21494;SDS011;10909;53.590;10.054;2023-04-03T06:47:42;2.47;;;1.63;;
21494;SDS011;10909;53.590;10.054;2023-04-03T06:50:09;2.70;;;1.37;;
21494;SDS011;10909;53.590;10.054;2023-04-03T06:52:36;2.50;;;1.30;;
21494;SDS011;10909;53.590;10.054;2023-04-03T06:55:02;2.97;;;1.60;;
21494;SDS011;10909;53.590;10.054;2023-04-03T06:57:28;2.20;;;1.10;;
21494;SDS011;10909;53.590;10.054;2023-04-03T06:59:54;1.60;;;1.17;;
21494;SDS011;10909;53.590;10.054;2023-04-03T07:02:20;2.53;;;1.10;;
21494;SDS011;10909;53.590;10.054;2023-04-03T07:04:46;2.23;;;1.10;;
21494;SDS011;10909;53.590;10.054;2023-04-03T07:07:12;2.20;;;1.13;;
21494;SDS011;10909;53.590;10.054;2023-04-03T07:09:38;2.17;;;1.30;;
21494;SDS011;10909;53.590;10.054;2023-04-03T07:12:03;2.13;;;1.10;;
21494;SDS011;10909;53.590;10.054;2023-04-03T07:14:30;2.40;;;1.17;;
21494;SDS011;10909;53.590;10.054;2023-04-03T07:16:55;3.43;;;1.27;;
21494;SDS011;10909;53.590;10.054;2023-04-03T07:19:21;3.10;;;1.20;;
21494;SDS011;10909;53.590;10.054;2023-04-03T07:21:49;2.70;;;1.27;;
21494;SDS011;10909;53.590;10.054;2023-04-03T07:24:14;3.13;;;1.40;;
21494;SDS011;10909;53.590;10.054;2023-04-03T07:26:40;1.90;;;1.20;;
21494;SDS011;10909;53.590;10.054;2023-04-03T07:29:06;1.97;;;1.23;;
21494;SDS011;10909;53.590;10.054;2023-04-03T07:31:33;1.73;;;1.10;;
21494;SDS011;10909;53.590;10.054;2023-04-03T07:33:59;3.57;;;1.20;;
21494;SDS011;10909;53.590;10.054;2023-04-03T07:36:25;1.70;;;1.10;;
21494;SDS011;10909;53.590;10.054;2023-04-03T07:38:51;2.17;;;1.10;;
21494;SDS011;10909;53.590;10.054;2023-04-03T07:41:17;3.10;;;1.13;;
21494;SDS011;10909;53.590;10.054;2023-04-03T07:43:46;2.13;;;1.00;;
21494;SDS011;10909;53.590;10.054;2023-04-03T07:46:12;1.73;;;1.00;;
21494;SDS011;10909;53.590;10.054;2023-04-03T07:48:37;2.50;;;1.17;;
21494;SDS011;10909;53.590;10.054;2023-04-03T07:51:03;2.73;;;1.03;;
21494;SDS011;10909;53.590;10.054;2023-04-03T07:53:30;2.67;;;1.27;;
21494;SDS011;10909;53.590;10.054;2023-04-03T07:55:56;1.60;;;1.00;;
21494;SDS011;10909;53.590;10.054;2023-04-03T07:58:23;3.20;;;1.10;;
21494;SDS011;10909;53.590;10.054;2023-04-03T08:00:48;1.87;;;1.20;;
21494;SDS011;10909;53.590;10.054;2023-04-03T08:03:15;2.07;;;1.23;;
21494;SDS011;10909;53.590;10.054;2023-04-03T08:05:41;1.47;;;1.00;;
21494;SDS011;10909;53.590;10.054;2023-04-03T08:08:09;1.80;;;1.13;;
21494;SDS011;10909;53.590;10.054;2023-04-03T08:10:40;2.47;;;0.90;;
21494;SDS011;10909;53.590;10.054;2023-04-03T08:13:06;2.77;;;1.20;;
21494;SDS011;10909;53.590;10.054;2023-04-03T08:15:33;2.27;;;1.10;;
21494;SDS011;10909;53.590;10.054;2023-04-03T08:17:59;2.33;;;1.10;;
21494;SDS011;10909;53.590;10.054;2023-04-03T08:20:26;1.87;;;1.00;;
21494;SDS011;10909;53.590;10.054;2023-04-03T08:22:53;2.30;;;0.97;;
21494;SDS011;10909;53.590;10.054;2023-04-03T08:25:20;1.10;;;0.90;;
21494;SDS011;10909;53.590;10.054;2023-04-03T08:27:46;2.83;;;1.10;;
21494;SDS011;10909;53.590;10.054;2023-04-03T08:30:12;1.43;;;0.80;;
21494;SDS011;10909;53.590;10.054;2023-04-03T08:32:38;2.47;;;1.03;;
21494;SDS011;10909;53.590;10.054;2023-04-03T08:35:06;1.87;;;1.00;;
21494;SDS011;10909;53.590;10.054;2023-04-03T08:37:37;1.60;;;0.97;;
21494;SDS011;10909;53.590;10.054;2023-04-03T08:40:07;2.13;;;1.00;;
21494;SDS011;10909;53.590;10.054;2023-04-03T08:50:20;0.73;;;0.60;;
21494;SDS011;10909;53.590;10.054;2023-04-03T08:52:58;2.83;;;0.90;;
21494;SDS011;10909;53.590;10.054;2023-04-03T08:55:27;1.57;;;1.00;;
21494;SDS011;10909;53.590;10.054;2023-04-03T09:00:27;1.70;;;0.97;;
21494;SDS011;10909;53.590;10.054;2023-04-03T09:03:02;1.40;;;0.80;;
21494;SDS011;10909;53.590;10.054;2023-04-03T09:05:35;0.93;;;0.80;;
21494;SDS011;10909;53.590;10.054;2023-04-03T09:11:05;2.00;;;1.00;;
21494;SDS011;10909;53.590;10.054;2023-04-03T09:16:56;1.10;;;0.87;;
21494;SDS011;10909;53.590;10.054;2023-04-03T09:21:58;1.67;;;1.00;;
21494;SDS011;10909;53.590;10.054;2023-04-03T09:24:43;1.67;;;0.83;;
21494;SDS011;10909;53.590;10.054;2023-04-03T09:27:12;2.50;;;0.90;;
21494;SDS011;10909;53.590;10.054;2023-04-03T09:29:42;0.87;;;0.83;;
21494;SDS011;10909;53.590;10.054;2023-04-03T09:35:03;1.63;;;1.10;;
21494;SDS011;10909;53.590;10.054;2023-04-03T09:43:51;0.67;;;0.60;;
21494;SDS011;10909;53.590;10.054;2023-04-03T09:46:15;0.97;;;0.80;;
21494;SDS011;10909;53.590;10.054;2023-04-03T09:48:58;1.23;;;1.10;;
21494;SDS011;10909;53.590;10.054;2023-04-03T09:51:27;1.10;;;1.00;;
21494;SDS011;10909;53.590;10.054;2023-04-03T09:53:54;2.37;;;0.90;;
21494;SDS011;10909;53.590;10.054;2023-04-03T09:56:22;1.63;;;1.00;;
21494;SDS011;10909;53.590;10.054;2023-04-03T10:01:28;1.33;;;0.80;;
21494;SDS011;10909;53.590;10.054;2023-04-03T10:04:18;0.97;;;0.70;;
21494;SDS011;10909;53.590;10.054;2023-04-03T10:09:23;2.57;;;0.87;;
21494;SDS011;10909;53.590;10.054;2023-04-03T10:12:12;1.80;;;0.97;;
21494;SDS011;10909;53.590;10.054;2023-04-03T10:14:55;1.50;;;0.83;;
21494;SDS011;10909;53.590;10.054;2023-04-03T10:28:22;0.90;;;0.80;;
21494;SDS011;10909;53.590;10.054;2023-04-03T10:39:24;1.33;;;0.87;;
21494;SDS011;10909;53.590;10.054;2023-04-03T10:47:58;1.43;;;0.70;;
21494;SDS011;10909;53.590;10.054;2023-04-03T10:56:55;1.23;;;0.80;;
21494;SDS011;10909;53.590;10.054;2023-04-03T11:04:40;2.20;;;0.70;;
21494;SDS011;10909;53.590;10.054;2023-04-03T11:07:15;1.47;;;0.90;;
21494;SDS011;10909;53.590;10.054;2023-04-03T11:09:46;1.10;;;0.87;;
21494;SDS011;10909;53.590;10.054;2023-04-03T11:12:26;2.93;;;1.00;;
21494;SDS011;10909;53.590;10.054;2023-04-03T11:15:01;1.23;;;0.80;;
21494;SDS011;10909;53.590;10.054;2023-04-03T11:17:31;2.47;;;1.07;;
21494;SDS011;10909;53.590;10.054;2023-04-03T11:22:36;2.03;;;1.10;;
21494;SDS011;10909;53.590;10.054;2023-04-03T11:25:22;2.23;;;1.13;;
21494;SDS011;10909;53.590;10.054;2023-04-03T11:28:05;2.00;;;1.17;;
21494;SDS011;10909;53.590;10.054;2023-04-03T11:38:43;1.80;;;0.90;;
21494;SDS011;10909;53.590;10.054;2023-04-03T11:41:12;5.27;;;1.23;;
21494;SDS011;10909;53.590;10.054;2023-04-03T11:43:54;1.17;;;0.90;;
21494;SDS011;10909;53.590;10.054;2023-04-03T12:13:37;2.33;;;1.10;;
21494;SDS011;10909;53.590;10.054;2023-04-03T12:16:22;1.47;;;1.00;;
21494;SDS011;10909;53.590;10.054;2023-04-03T12:21:14;1.73;;;1.03;;
21494;SDS011;10909;53.590;10.054;2023-04-03T12:29:23;1.50;;;1.00;;
21494;SDS011;10909;53.590;10.054;2023-04-03T12:37:22;2.50;;;1.00;;
21494;SDS011;10909;53.590;10.054;2023-04-03T12:40:00;1.60;;;1.10;;
21494;SDS011;10909;53.590;10.054;2023-04-03T12:45:10;1.33;;;0.70;;
21494;SDS011;10909;53.590;10.054;2023-04-03T12:47:51;2.10;;;1.13;;
21494;SDS011;10909;53.590;10.054;2023-04-03T12:50:20;1.05;;;0.80;;
21494;SDS011;10909;53.590;10.054;2023-04-03T12:55:30;4.43;;;1.17;;
21494;SDS011;10909;53.590;10.054;2023-04-03T12:57:56;1.52;;;1.00;;
21494;SDS011;10909;53.590;10.054;2023-04-03T13:00:26;1.98;;;1.00;;
21494;SDS011;10909;53.590;10.054;2023-04-03T13:02:57;1.90;;;0.82;;
21494;SDS011;10909;53.590;10.054;2023-04-03T13:05:24;0.70;;;0.70;;
21494;SDS011;10909;53.590;10.054;2023-04-03T13:07:52;1.50;;;0.80;;
21494;SDS011;10909;53.590;10.054;2023-04-03T13:10:26;1.05;;;0.70;;
21494;SDS011;10909;53.590;10.054;2023-04-03T13:12:53;1.73;;;1.00;;
21494;SDS011;10909;53.590;10.054;2023-04-03T13:17:52;0.82;;;0.65;;
21494;SDS011;10909;53.590;10.054;2023-04-03T13:20:26;2.13;;;1.00;;
21494;SDS011;10909;53.590;10.054;2023-04-03T13:23:02;2.17;;;0.93;;
21494;SDS011;10909;53.590;10.054;2023-04-03T13:25:31;1.20;;;0.90;;
21494;SDS011;10909;53.590;10.054;2023-04-03T13:27:59;1.35;;;0.80;;
21494;SDS011;10909;53.590;10.054;2023-04-03T13:30:29;2.65;;;0.80;;
21494;SDS011;10909;53.590;10.054;2023-04-03T13:32:59;1.40;;;1.05;;
21494;SDS011;10909;53.590;10.054;2023-04-03T13:35:35;1.50;;;0.90;;
21494;SDS011;10909;53.590;10.054;2023-04-03T13:38:27;0.80;;;0.80;;
21494;SDS011;10909;53.590;10.054;2023-04-03T13:40:54;2.17;;;0.90;;
21494;SDS011;10909;53.590;10.054;2023-04-03T13:43:25;1.42;;;1.10;;
21494;SDS011;10909;53.590;10.054;2023-04-03T13:46:00;1.40;;;0.90;;
21494;SDS011;10909;53.590;10.054;2023-04-03T13:48:48;1.20;;;0.80;;
21494;SDS011;10909;53.590;10.054;2023-04-03T13:51:17;1.63;;;0.95;;
21494;SDS011;10909;53.590;10.054;2023-04-03T13:53:58;1.45;;;1.00;;
21494;SDS011;10909;53.590;10.054;2023-04-03T13:59:06;1.55;;;1.02;;
21494;SDS011;10909;53.590;10.054;2023-04-03T14:07:10;1.95;;;1.08;;
21494;SDS011;10909;53.590;10.054;2023-04-03T14:09:41;1.58;;;1.05;;
21494;SDS011;10909;53.590;10.054;2023-04-03T14:12:08;1.45;;;1.15;;
21494;SDS011;10909;53.590;10.054;2023-04-03T14:14:41;1.15;;;0.90;;
21494;SDS011;10909;53.590;10.054;2023-04-03T14:17:14;2.13;;;1.17;;
21494;SDS011;10909;53.590;10.054;2023-04-03T14:19:45;1.50;;;0.98;;
21494;SDS011;10909;53.590;10.054;2023-04-03T14:24:42;1.48;;;1.10;;
21494;SDS011;10909;53.590;10.054;2023-04-03T14:27:14;1.67;;;1.02;;
21494;SDS011;10909;53.590;10.054;2023-04-03T14:29:45;2.03;;;0.90;;
21494;SDS011;10909;53.590;10.054;2023-04-03T14:32:12;1.00;;;0.90;;
21494;SDS011;10909;53.590;10.054;2023-04-03T14:34:39;2.30;;;1.27;;
21494;SDS011;10909;53.590;10.054;2023-04-03T14:37:09;1.90;;;1.20;;
21494;SDS011;10909;53.590;10.054;2023-04-03T14:39:36;1.47;;;1.00;;
21494;SDS011;10909;53.590;10.054;2023-04-03T14:42:02;2.35;;;1.25;;
21494;SDS011;10909;53.590;10.054;2023-04-03T14:44:28;1.00;;;0.90;;
21494;SDS011;10909;53.590;10.054;2023-04-03T14:46:53;2.58;;;0.93;;
21494;SDS011;10909;53.590;10.054;2023-04-03T14:49:22;1.38;;;1.08;;
21494;SDS011;10909;53.590;10.054;2023-04-03T14:51:51;2.72;;;1.15;;
21494;SDS011;10909;53.590;10.054;2023-04-03T14:54:18;1.63;;;0.80;;
21494;SDS011;10909;53.590;10.054;2023-04-03T14:56:50;2.60;;;1.30;;
21494;SDS011;10909;53.590;10.054;2023-04-03T14:59:16;1.98;;;1.00;;
21494;SDS011;10909;53.590;10.054;2023-04-03T15:01:44;1.20;;;1.00;;
21494;SDS011;10909;53.590;10.054;2023-04-03T15:04:14;1.52;;;1.00;;
21494;SDS011;10909;53.590;10.054;2023-04-03T15:06:41;1.85;;;1.20;;
21494;SDS011;10909;53.590;10.054;2023-04-03T15:09:15;2.60;;;1.38;;
21494;SDS011;10909;53.590;10.054;2023-04-03T15:11:48;1.65;;;1.00;;
21494;SDS011;10909;53.590;10.054;2023-04-03T15:14:15;1.75;;;1.20;;
21494;SDS011;10909;53.590;10.054;2023-04-03T15:16:41;1.20;;;1.00;;
21494;SDS011;10909;53.590;10.054;2023-04-03T15:19:07;2.25;;;1.20;;
21494;SDS011;10909;53.590;10.054;2023-04-03T15:21:33;2.05;;;1.10;;
21494;SDS011;10909;53.590;10.054;2023-04-03T15:23:59;1.83;;;1.13;;
21494;SDS011;10909;53.590;10.054;2023-04-03T15:26:26;2.42;;;1.27;;
21494;SDS011;10909;53.590;10.054;2023-04-03T15:28:52;1.50;;;0.93;;
21494;SDS011;10909;53.590;10.054;2023-04-03T15:31:17;1.52;;;1.00;;
21494;SDS011;10909;53.590;10.054;2023-04-03T15:33:44;1.45;;;1.20;;
21494;SDS011;10909;53.590;10.054;2023-04-03T15:36:10;2.72;;;1.20;;
21494;SDS011;10909;53.590;10.054;2023-04-03T15:38:36;1.73;;;1.20;;
21494;SDS011;10909;53.590;10.054;2023-04-03T15:41:03;1.50;;;1.00;;
21494;SDS011;10909;53.590;10.054;2023-04-03T15:43:29;1.73;;;1.00;;
21494;SDS011;10909;53.590;10.054;2023-04-03T15:45:58;1.10;;;1.00;;
21494;SDS011;10909;53.590;10.054;2023-04-03T15:48:25;1.55;;;0.98;;
21494;SDS011;10909;53.590;10.054;2023-04-03T15:50:51;1.70;;;1.10;;
21494;SDS011;10909;53.590;10.054;2023-04-03T15:53:17;1.90;;;1.10;;
21494;SDS011;10909;53.590;10.054;2023-04-03T15:55:43;1.13;;;0.90;;
21494;SDS011;10909;53.590;10.054;2023-04-03T15:58:09;2.67;;;1.10;;
21494;SDS011;10909;53.590;10.054;2023-04-03T16:00:36;1.95;;;1.00;;
21494;SDS011;10909;53.590;10.054;2023-04-03T16:03:08;1.77;;;0.90;;
21494;SDS011;10909;53.590;10.054;2023-04-03T16:05:40;2.85;;;1.10;;
21494;SDS011;10909;53.590;10.054;2023-04-03T16:08:06;1.65;;;0.90;;
21494;SDS011;10909;53.590;10.054;2023-04-03T16:10:33;1.93;;;0.97;;
21494;SDS011;10909;53.590;10.054;2023-04-03T16:13:02;1.10;;;0.80;;
21494;SDS011;10909;53.590;10.054;2023-04-03T16:15:28;2.17;;;0.90;;
21494;SDS011;10909;53.590;10.054;2023-04-03T16:17:55;2.67;;;1.00;;
21494;SDS011;10909;53.590;10.054;2023-04-03T16:20:22;2.20;;;1.10;;
21494;SDS011;10909;53.590;10.054;2023-04-03T16:22:48;1.30;;;0.83;;
21494;SDS011;10909;53.590;10.054;2023-04-03T16:25:14;1.90;;;1.10;;
21494;SDS011;10909;53.590;10.054;2023-04-03T16:27:40;2.13;;;1.00;;
21494;SDS011;10909;53.590;10.054;2023-04-03T16:30:06;2.33;;;1.10;;
21494;SDS011;10909;53.590;10.054;2023-04-03T16:32:33;1.80;;;1.30;;
21494;SDS011;10909;53.590;10.054;2023-04-03T16:34:59;1.30;;;0.90;;
21494;SDS011;10909;53.590;10.054;2023-04-03T16:37:25;2.00;;;1.30;;
21494;SDS011;10909;53.590;10.054;2023-04-03T16:39:51;1.73;;;0.90;;
21494;SDS011;10909;53.590;10.054;2023-04-03T16:42:17;1.77;;;1.00;;
21494;SDS011;10909;53.590;10.054;2023-04-03T16:44:42;1.57;;;0.90;;
21494;SDS011;10909;53.590;10.054;2023-04-03T16:47:08;2.60;;;1.20;;
21494;SDS011;10909;53.590;10.054;2023-04-03T16:49:34;2.73;;;1.20;;
21494;SDS011;10909;53.590;10.054;2023-04-03T16:52:01;2.30;;;1.00;;
21494;SDS011;10909;53.590;10.054;2023-04-03T16:54:29;2.43;;;1.20;;
21494;SDS011;10909;53.590;10.054;2023-04-03T16:56:55;1.50;;;1.00;;
21494;SDS011;10909;53.590;10.054;2023-04-03T16:59:21;3.03;;;1.50;;
21494;SDS011;10909;53.590;10.054;2023-04-03T17:01:47;2.47;;;1.20;;